Time;durP1;ratioP1;P1;durP2;ratioP2;P2;SDS_P1;SDS_P2;PMS_P1;PMS_P2;Temp;Humidity;BMP_temperature;BMP_pressure;BME280_temperature;BME280_humidity;BME280_pressure;Samples;Min_cycle;Max_cycle;Signal;HPM_P1;HPM_P2
2022/05/01 00:02:26;;;;;;;6.57;5.73;;;;;;;;;;5037317;28;20203;-72
2022/05/01 00:04:57;;;;;;;6.93;6.23;;;;;;;;;;5039667;28;20685;-72
2022/05/01 00:07:25;;;;;;;6.53;5.90;;;;;;;;;;5039322;28;20241;-72
2022/05/01 00:09:54;;;;;;;7.97;6.53;;;;;;;;;;5039117;28;20207;-72
2022/05/01 00:12:22;;;;;;;7.20;6.27;;;;;;;;;;5038767;28;20203;-73
2022/05/01 00:14:51;;;;;;;8.80;6.40;;;;;;;;;;5036335;28;20228;-73
2022/05/01 00:17:19;;;;;;;6.50;5.90;;;;;;;;;;5030095;28;20220;-72
2022/05/01 00:19:48;;;;;;;7.73;6.17;;;;;;;;;;5039627;28;20203;-72
2022/05/01 00:22:25;;;;;;;9.57;6.00;;;;;;;;;;5039109;28;20206;-72
2022/05/01 00:24:53;;;;;;;7.20;6.50;;;;;;;;;;5038358;28;20192;-72
2022/05/01 00:27:22;;;;;;;7.70;6.83;;;;;;;;;;5038547;28;20227;-72
2022/05/01 00:29:50;;;;;;;8.17;6.47;;;;;;;;;;5039471;28;20204;-72
2022/05/01 00:32:25;;;;;;;7.42;6.62;;;;;;;;;;4943739;23;10002968;-73
2022/05/01 00:37:40;;;;;;;8.97;7.47;;;;;;;;;;5053246;28;20277;-72
2022/05/01 00:40:09;;;;;;;8.57;7.67;;;;;;;;;;5037975;28;20202;-72
2022/05/01 00:42:38;;;;;;;9.07;7.33;;;;;;;;;;5038450;28;20277;-72
2022/05/01 00:45:07;;;;;;;8.10;7.30;;;;;;;;;;5039034;28;20208;-72
2022/05/01 00:47:36;;;;;;;8.77;7.87;;;;;;;;;;5038874;28;20223;-73
2022/05/01 00:50:04;;;;;;;8.40;7.50;;;;;;;;;;5033717;28;20233;-73
2022/05/01 00:52:33;;;;;;;10.17;8.10;;;;;;;;;;5036629;28;20727;-73
2022/05/01 00:55:03;;;;;;;9.03;7.83;;;;;;;;;;5036797;28;20270;-73
2022/05/01 00:57:32;;;;;;;9.90;7.83;;;;;;;;;;5038815;28;20227;-73
2022/05/01 01:00:00;;;;;;;8.87;7.97;;;;;;;;;;5039597;28;20210;-73
2022/05/01 01:02:29;;;;;;;11.00;9.03;;;;;;;;;;5038169;28;20195;-73
2022/05/01 01:04:57;;;;;;;10.27;8.10;;;;;;;;;;5035056;28;20257;-73
2022/05/01 01:07:27;;;;;;;8.50;7.60;;;;;;;;;;5038215;28;20231;-72
2022/05/01 01:09:55;;;;;;;9.53;8.63;;;;;;;;;;5038258;28;20211;-73
2022/05/01 01:15:12;;;;;;;10.50;8.90;;;;;;;;;;5020364;28;20229;-72
2022/05/01 01:17:41;;;;;;;13.40;9.10;;;;;;;;;;5020440;28;20297;-73
2022/05/01 01:20:13;;;;;;;9.00;8.10;;;;;;;;;;5036215;28;20261;-73
2022/05/01 01:22:44;;;;;;;11.60;8.00;;;;;;;;;;5034664;28;20210;-73
2022/05/01 01:25:13;;;;;;;9.63;8.60;;;;;;;;;;5035312;28;20200;-73
2022/05/01 01:27:41;;;;;;;12.63;8.50;;;;;;;;;;5034828;28;20690;-73
2022/05/01 01:32:57;;;;;;;11.00;7.90;;;;;;;;;;5034344;28;20218;-72
2022/05/01 01:35:26;;;;;;;11.53;8.07;;;;;;;;;;5035629;28;20259;-73
2022/05/01 01:37:56;;;;;;;9.33;7.90;;;;;;;;;;5033187;28;20649;-73
2022/05/01 01:40:25;;;;;;;9.60;8.07;;;;;;;;;;5035858;28;20212;-73
2022/05/01 01:42:54;;;;;;;12.17;7.93;;;;;;;;;;5033209;28;20682;-73
2022/05/01 01:45:24;;;;;;;10.63;8.53;;;;;;;;;;5034981;28;20267;-73
2022/05/01 01:47:53;;;;;;;12.20;8.37;;;;;;;;;;5034323;28;20234;-73
2022/05/01 01:50:22;;;;;;;9.67;8.23;;;;;;;;;;5035177;28;20250;-73
2022/05/01 01:52:50;;;;;;;12.83;8.43;;;;;;;;;;5033967;28;20206;-73
2022/05/01 01:55:20;;;;;;;9.67;8.67;;;;;;;;;;5035765;28;20224;-73
2022/05/01 01:57:49;;;;;;;9.93;7.93;;;;;;;;;;5035774;28;20293;-73
2022/05/01 02:00:17;;;;;;;9.87;8.53;;;;;;;;;;5034743;28;20196;-73
2022/05/01 02:02:45;;;;;;;12.00;8.77;;;;;;;;;;5033424;28;20230;-72
2022/05/01 02:05:14;;;;;;;9.20;8.03;;;;;;;;;;5032661;28;20200;-73
2022/05/01 02:07:43;;;;;;;10.10;9.00;;;;;;;;;;5034656;28;20281;-72
2022/05/01 02:10:12;;;;;;;9.50;8.50;;;;;;;;;;5034156;28;20204;-73
2022/05/01 02:12:42;;;;;;;10.07;8.83;;;;;;;;;;5031141;28;20261;-73
2022/05/01 02:15:11;;;;;;;13.43;8.77;;;;;;;;;;5034637;28;20223;-73
2022/05/01 02:17:39;;;;;;;12.00;8.13;;;;;;;;;;5033058;28;20288;-73
2022/05/01 02:20:09;;;;;;;10.13;8.83;;;;;;;;;;5034730;28;20205;-73
2022/05/01 02:22:38;;;;;;;10.13;8.10;;;;;;;;;;5033181;28;20651;-73
2022/05/01 02:25:08;;;;;;;13.47;9.37;;;;;;;;;;5033894;28;20204;-73
2022/05/01 02:27:37;;;;;;;9.67;8.57;;;;;;;;;;5032717;28;21034;-73
2022/05/01 02:30:08;;;;;;;13.03;9.23;;;;;;;;;;5034165;28;20200;-73
2022/05/01 02:32:37;;;;;;;11.07;9.00;;;;;;;;;;5030550;28;20227;-74
2022/05/01 02:35:06;;;;;;;11.73;8.97;;;;;;;;;;5029059;28;20751;-73
2022/05/01 02:37:35;;;;;;;11.63;8.83;;;;;;;;;;5040854;28;20228;-73
2022/05/01 02:40:04;;;;;;;14.17;8.63;;;;;;;;;;5033199;28;20610;-73
2022/05/01 02:42:32;;;;;;;9.03;7.70;;;;;;;;;;5030917;28;20592;-73
2022/05/01 02:45:00;;;;;;;9.30;8.10;;;;;;;;;;5033203;28;20199;-73
2022/05/01 02:47:30;;;;;;;11.47;8.00;;;;;;;;;;5032666;28;20227;-73
2022/05/01 02:49:58;;;;;;;11.47;8.03;;;;;;;;;;5033640;28;20203;-73
2022/05/01 02:52:27;;;;;;;8.73;7.07;;;;;;;;;;5032676;28;22014;-73
2022/05/01 02:54:55;;;;;;;12.53;8.20;;;;;;;;;;5033795;28;20228;-73
2022/05/01 02:57:24;;;;;;;8.70;7.30;;;;;;;;;;5033674;28;20587;-73
2022/05/01 02:59:52;;;;;;;13.43;8.37;;;;;;;;;;5034098;28;20248;-73
2022/05/01 03:02:23;;;;;;;10.40;8.13;;;;;;;;;;5032060;28;20227;-73
2022/05/01 03:04:53;;;;;;;12.50;8.50;;;;;;;;;;5027429;28;20230;-73
2022/05/01 03:07:21;;;;;;;11.00;7.70;;;;;;;;;;5033111;28;20719;-73
2022/05/01 03:09:50;;;;;;;11.40;8.40;;;;;;;;;;5032784;28;20580;-73
2022/05/01 03:12:18;;;;;;;11.73;7.57;;;;;;;;;;5032522;28;20234;-73
2022/05/01 03:14:47;;;;;;;12.27;8.30;;;;;;;;;;5033122;28;20204;-72
2022/05/01 03:17:15;;;;;;;10.87;8.17;;;;;;;;;;5033890;28;20219;-73
2022/05/01 03:22:32;;;;;;;10.57;8.07;;;;;;;;;;5033072;28;20199;-72
2022/05/01 03:25:01;;;;;;;10.30;8.00;;;;;;;;;;5033598;28;20651;-73
2022/05/01 03:27:29;;;;;;;9.23;7.90;;;;;;;;;;5032209;28;20223;-73
2022/05/01 03:32:40;;;;;;;10.70;7.67;;;;;;;;;;5029525;28;20216;-73
2022/05/01 03:35:08;;;;;;;12.67;8.10;;;;;;;;;;5030835;28;20286;-72
2022/05/01 03:37:38;;;;;;;12.20;8.53;;;;;;;;;;5032239;28;20231;-73
2022/05/01 03:40:07;;;;;;;10.23;8.50;;;;;;;;;;5033288;28;20236;-73
2022/05/01 03:42:35;;;;;;;12.13;8.10;;;;;;;;;;5032409;28;20651;-72
2022/05/01 03:45:04;;;;;;;12.20;8.33;;;;;;;;;;5031855;28;20606;-72
2022/05/01 03:47:33;;;;;;;13.63;9.47;;;;;;;;;;5032759;28;20584;-72
2022/05/01 03:50:01;;;;;;;9.80;7.80;;;;;;;;;;5033117;28;20208;-73
2022/05/01 03:52:29;;;;;;;11.50;8.63;;;;;;;;;;5032446;28;20204;-73
2022/05/01 03:54:59;;;;;;;14.37;9.70;;;;;;;;;;5032401;28;20215;-73
2022/05/01 03:57:34;;;;;;;12.27;8.73;;;;;;;;;;5029283;28;20219;-73
2022/05/01 04:00:02;;;;;;;12.47;8.77;;;;;;;;;;5033466;28;20618;-73
2022/05/01 04:02:31;;;;;;;11.97;9.37;;;;;;;;;;5032320;28;20611;-73
2022/05/01 04:04:59;;;;;;;10.27;8.73;;;;;;;;;;5031507;28;22320;-73
2022/05/01 04:07:27;;;;;;;12.00;9.00;;;;;;;;;;5032903;28;20219;-73
2022/05/01 04:09:56;;;;;;;14.13;8.90;;;;;;;;;;5032952;28;20237;-73
2022/05/01 04:12:26;;;;;;;11.50;8.53;;;;;;;;;;5032642;28;20204;-73
2022/05/01 04:14:54;;;;;;;13.20;9.50;;;;;;;;;;5030610;28;20212;-73
2022/05/01 04:17:22;;;;;;;13.33;8.17;;;;;;;;;;5032953;28;20223;-73
2022/05/01 04:19:51;;;;;;;10.90;8.13;;;;;;;;;;5018237;28;20265;-73
2022/05/01 04:22:20;;;;;;;11.30;7.87;;;;;;;;;;5032469;28;20204;-73
2022/05/01 04:24:48;;;;;;;10.50;7.90;;;;;;;;;;5013749;28;20268;-73
2022/05/01 04:27:17;;;;;;;11.43;8.33;;;;;;;;;;5032731;28;20226;-73
2022/05/01 04:29:46;;;;;;;13.07;8.50;;;;;;;;;;5032779;28;20208;-73
2022/05/01 04:32:16;;;;;;;10.83;9.27;;;;;;;;;;5031655;28;20211;-73
2022/05/01 04:34:45;;;;;;;13.37;8.73;;;;;;;;;;5032371;28;20212;-73
2022/05/01 04:37:13;;;;;;;11.20;8.67;;;;;;;;;;5032955;28;20234;-73
2022/05/01 04:39:41;;;;;;;10.80;8.53;;;;;;;;;;5032522;28;20253;-73
2022/05/01 04:42:10;;;;;;;11.23;8.60;;;;;;;;;;5027893;28;20206;-73
2022/05/01 04:44:38;;;;;;;10.90;8.73;;;;;;;;;;5032513;28;20207;-73
2022/05/01 04:47:08;;;;;;;11.37;8.33;;;;;;;;;;5033041;28;20234;-73
2022/05/01 04:49:37;;;;;;;16.63;8.17;;;;;;;;;;5036760;28;20208;-73
2022/05/01 04:52:06;;;;;;;11.57;8.37;;;;;;;;;;5029804;28;20207;-73
2022/05/01 04:54:34;;;;;;;10.87;8.17;;;;;;;;;;5035306;28;20207;-73
2022/05/01 04:57:06;;;;;;;11.70;8.63;;;;;;;;;;5035779;28;20223;-72
2022/05/01 04:59:34;;;;;;;11.17;8.40;;;;;;;;;;5033662;28;20606;-73
2022/05/01 05:02:03;;;;;;;9.27;8.07;;;;;;;;;;5029237;28;20204;-73
2022/05/01 05:04:34;;;;;;;13.07;8.60;;;;;;;;;;5036365;28;20579;-73
2022/05/01 05:07:02;;;;;;;12.27;9.00;;;;;;;;;;5020508;28;20219;-73
2022/05/01 05:12:17;;;;;;;12.60;8.87;;;;;;;;;;5035326;28;20258;-73
2022/05/01 05:14:47;;;;;;;9.67;7.70;;;;;;;;;;5034128;28;20207;-73
2022/05/01 05:17:18;;;;;;;11.40;7.90;;;;;;;;;;5035596;28;20250;-73
2022/05/01 05:19:48;;;;;;;9.50;8.20;;;;;;;;;;5035257;28;20204;-73
2022/05/01 05:22:17;;;;;;;14.17;8.53;;;;;;;;;;5034510;28;20222;-73
2022/05/01 05:24:45;;;;;;;10.23;8.53;;;;;;;;;;5035493;28;20208;-73
2022/05/01 05:27:14;;;;;;;14.40;8.10;;;;;;;;;;5035699;28;20617;-73
2022/05/01 05:29:42;;;;;;;10.87;7.63;;;;;;;;;;5025839;28;20200;-73
2022/05/01 05:32:11;;;;;;;9.90;8.20;;;;;;;;;;5027637;28;20276;-73
2022/05/01 05:34:39;;;;;;;10.60;8.60;;;;;;;;;;5034601;28;20208;-73
2022/05/01 05:37:09;;;;;;;11.73;8.43;;;;;;;;;;5027146;28;20700;-71
2022/05/01 05:39:38;;;;;;;11.33;7.87;;;;;;;;;;5030811;28;20204;-72
2022/05/01 05:42:07;;;;;;;10.03;7.37;;;;;;;;;;5033805;28;20200;-73
2022/05/01 05:44:35;;;;;;;11.10;7.90;;;;;;;;;;5032442;28;20208;-73
2022/05/01 05:47:04;;;;;;;11.40;8.33;;;;;;;;;;5027399;28;20205;-73
2022/05/01 05:49:33;;;;;;;12.50;8.40;;;;;;;;;;5033739;28;20602;-73
2022/05/01 05:52:01;;;;;;;11.43;8.67;;;;;;;;;;5028611;28;20624;-73
2022/05/01 05:54:32;;;;;;;11.37;7.77;;;;;;;;;;5034898;28;20548;-73
2022/05/01 05:57:00;;;;;;;13.40;8.17;;;;;;;;;;5035293;28;20224;-73
2022/05/01 05:59:29;;;;;;;9.23;8.07;;;;;;;;;;5034522;28;20651;-73
2022/05/01 06:01:57;;;;;;;10.17;7.27;;;;;;;;;;5034126;28;20607;-74
2022/05/01 06:04:26;;;;;;;10.50;8.30;;;;;;;;;;5034418;28;20208;-73
2022/05/01 06:06:55;;;;;;;10.43;7.93;;;;;;;;;;5033726;28;20222;-73
2022/05/01 06:09:23;;;;;;;12.10;8.53;;;;;;;;;;5033569;28;20203;-73
2022/05/01 06:11:53;;;;;;;10.47;7.63;;;;;;;;;;5029258;28;20206;-73
2022/05/01 06:14:21;;;;;;;10.57;8.03;;;;;;;;;;5034633;28;20208;-72
2022/05/01 06:16:50;;;;;;;11.40;7.90;;;;;;;;;;5033795;28;20227;-72
2022/05/01 06:19:19;;;;;;;10.40;7.30;;;;;;;;;;5033876;28;20204;-72
2022/05/01 06:21:47;;;;;;;10.77;7.60;;;;;;;;;;5035152;28;20203;-72
2022/05/01 06:24:16;;;;;;;9.67;7.00;;;;;;;;;;5034000;28;20201;-72
2022/05/01 06:26:44;;;;;;;13.13;7.23;;;;;;;;;;5032704;28;20222;-72
2022/05/01 06:29:14;;;;;;;9.47;7.10;;;;;;;;;;5034159;28;20274;-72
2022/05/01 06:31:43;;;;;;;9.43;7.10;;;;;;;;;;5030138;28;20559;-72
2022/05/01 06:34:13;;;;;;;11.73;6.73;;;;;;;;;;5030798;28;20246;-72
2022/05/01 06:36:41;;;;;;;8.77;7.10;;;;;;;;;;5032375;28;20212;-73
2022/05/01 06:39:11;;;;;;;10.33;6.73;;;;;;;;;;5032787;28;20238;-72
2022/05/01 06:41:39;;;;;;;10.23;7.20;;;;;;;;;;5032923;28;20246;-72
2022/05/01 06:44:08;;;;;;;8.20;6.87;;;;;;;;;;5029114;28;20208;-71
2022/05/01 06:46:38;;;;;;;10.13;7.07;;;;;;;;;;5031218;28;20207;-73
2022/05/01 06:49:06;;;;;;;10.43;7.63;;;;;;;;;;5030803;28;20208;-73
2022/05/01 06:51:35;;;;;;;10.20;7.70;;;;;;;;;;5035525;28;20207;-73
2022/05/01 06:54:06;;;;;;;9.57;7.47;;;;;;;;;;5029081;28;20619;-73
2022/05/01 06:56:35;;;;;;;9.70;7.17;;;;;;;;;;5026123;28;20209;-73
2022/05/01 06:59:04;;;;;;;7.53;6.73;;;;;;;;;;5031728;28;20226;-72
2022/05/01 07:01:32;;;;;;;8.57;7.17;;;;;;;;;;5032623;28;20200;-73
2022/05/01 07:04:02;;;;;;;11.03;6.97;;;;;;;;;;5028329;28;20235;-73
2022/05/01 07:06:31;;;;;;;10.30;6.63;;;;;;;;;;5033843;28;20204;-72
2022/05/01 07:08:59;;;;;;;12.13;7.37;;;;;;;;;;5030962;28;20200;-73
2022/05/01 07:11:28;;;;;;;10.80;6.97;;;;;;;;;;5030862;28;20610;-72
2022/05/01 07:13:56;;;;;;;9.20;6.57;;;;;;;;;;5039418;28;20227;-72
2022/05/01 07:16:25;;;;;;;10.83;6.67;;;;;;;;;;5053548;28;20256;-74
2022/05/01 07:18:53;;;;;;;9.00;6.50;;;;;;;;;;5043516;28;20219;-74
2022/05/01 07:21:23;;;;;;;12.60;6.50;;;;;;;;;;5033655;28;20207;-74
2022/05/01 07:23:51;;;;;;;10.90;6.17;;;;;;;;;;5031117;28;20674;-74
2022/05/01 07:26:20;;;;;;;9.83;6.50;;;;;;;;;;5032773;28;20200;-73
2022/05/01 07:28:48;;;;;;;8.57;6.30;;;;;;;;;;5027940;28;20805;-73
2022/05/01 07:31:17;;;;;;;8.97;6.23;;;;;;;;;;5033422;28;20257;-73
2022/05/01 07:33:45;;;;;;;9.10;6.23;;;;;;;;;;5031325;28;20223;-73
2022/05/01 07:36:19;;;;;;;9.47;6.50;;;;;;;;;;5032601;28;20204;-74
2022/05/01 07:38:49;;;;;;;8.90;7.03;;;;;;;;;;5029723;28;20231;-72
2022/05/01 07:41:18;;;;;;;7.70;6.30;;;;;;;;;;5029093;28;20678;-74
2022/05/01 07:43:46;;;;;;;11.20;7.33;;;;;;;;;;5032058;28;20266;-73
2022/05/01 07:46:14;;;;;;;9.37;6.47;;;;;;;;;;5031448;28;20667;-73
2022/05/01 07:48:43;;;;;;;10.13;6.00;;;;;;;;;;5028817;28;20299;-72
2022/05/01 07:51:11;;;;;;;8.60;6.13;;;;;;;;;;5032076;28;20249;-72
2022/05/01 07:53:40;;;;;;;8.83;6.30;;;;;;;;;;5031686;28;20215;-72
2022/05/01 07:56:10;;;;;;;7.77;6.27;;;;;;;;;;5032678;28;20204;-72
2022/05/01 07:58:38;;;;;;;7.90;5.87;;;;;;;;;;5030415;28;20702;-72
2022/05/01 08:01:06;;;;;;;6.60;5.90;;;;;;;;;;5034350;28;20257;-73
2022/05/01 08:06:22;;;;;;;10.17;6.00;;;;;;;;;;5031741;28;20238;-73
2022/05/01 08:08:51;;;;;;;8.77;5.50;;;;;;;;;;5032590;28;20230;-73
2022/05/01 08:11:21;;;;;;;5.93;5.33;;;;;;;;;;5031608;28;20596;-73
2022/05/01 08:13:49;;;;;;;5.90;5.07;;;;;;;;;;5021240;28;20209;-73
2022/05/01 08:16:18;;;;;;;9.50;5.70;;;;;;;;;;5028102;28;20200;-74
2022/05/01 08:21:33;;;;;;;6.07;5.17;;;;;;;;;;5032045;28;20208;-73
2022/05/01 08:24:01;;;;;;;6.00;5.40;;;;;;;;;;5034126;28;20200;-73
2022/05/01 08:26:33;;;;;;;10.03;5.47;;;;;;;;;;5036775;28;20200;-73
2022/05/01 08:29:02;;;;;;;8.70;5.63;;;;;;;;;;5034902;28;20192;-74
2022/05/01 08:31:31;;;;;;;10.43;5.50;;;;;;;;;;5036047;28;20620;-73
2022/05/01 08:33:59;;;;;;;5.97;5.03;;;;;;;;;;5035220;28;20219;-73
2022/05/01 08:36:29;;;;;;;6.33;5.00;;;;;;;;;;5036884;28;20207;-73
2022/05/01 08:38:57;;;;;;;8.43;4.93;;;;;;;;;;5032723;28;20297;-72
2022/05/01 08:41:26;;;;;;;8.63;4.97;;;;;;;;;;5037545;28;20242;-73
2022/05/01 08:43:56;;;;;;;6.17;5.17;;;;;;;;;;5025550;28;20199;-73
2022/05/01 08:46:41;;;;;;;8.70;4.90;;;;;;;;;;5035723;28;20261;-73
2022/05/01 08:49:10;;;;;;;7.47;4.80;;;;;;;;;;5035446;28;20192;-73
2022/05/01 08:51:39;;;;;;;7.37;4.97;;;;;;;;;;5035800;28;20258;-73
2022/05/01 08:54:08;;;;;;;5.43;4.47;;;;;;;;;;5025207;28;20204;-74
2022/05/01 08:56:37;;;;;;;6.23;4.60;;;;;;;;;;5035345;28;20227;-74
2022/05/01 08:59:09;;;;;;;7.87;4.20;;;;;;;;;;5028289;28;20349;-72
2022/05/01 09:01:38;;;;;;;5.20;4.00;;;;;;;;;;5034940;28;20661;-73
2022/05/01 09:04:08;;;;;;;6.10;4.10;;;;;;;;;;5036002;28;20208;-73
2022/05/01 09:06:37;;;;;;;4.13;3.60;;;;;;;;;;5034949;28;20210;-74
2022/05/01 09:09:06;;;;;;;4.40;3.30;;;;;;;;;;5031961;28;20250;-73
2022/05/01 09:14:24;;;;;;;6.20;3.00;;;;;;;;;;5036799;28;20203;-74
2022/05/01 09:17:23;;;;;;;5.10;3.30;;;;;;;;;;5034994;28;20289;-73
2022/05/01 09:19:53;;;;;;;3.50;2.77;;;;;;;;;;4973844;28;20317;-72
2022/05/01 09:22:22;;;;;;;4.13;3.03;;;;;;;;;;5023041;28;20211;-72
2022/05/01 09:24:53;;;;;;;4.63;3.20;;;;;;;;;;5034659;28;20208;-73
2022/05/01 09:27:29;;;;;;;3.20;2.70;;;;;;;;;;5034350;28;20228;-73
2022/05/01 09:30:31;;;;;;;4.90;3.30;;;;;;;;;;5032247;28;20196;-73
2022/05/01 09:33:00;;;;;;;4.97;2.60;;;;;;;;;;5034842;28;20211;-73
2022/05/01 09:35:31;;;;;;;3.37;2.60;;;;;;;;;;5032347;28;21149;-72
2022/05/01 09:38:21;;;;;;;3.67;2.40;;;;;;;;;;5022251;28;20224;-73
2022/05/01 09:40:50;;;;;;;4.00;2.73;;;;;;;;;;5030481;28;20192;-73
2022/05/01 09:43:36;;;;;;;4.33;2.57;;;;;;;;;;5034035;28;20204;-73
2022/05/01 09:46:16;;;;;;;2.83;2.20;;;;;;;;;;5031597;28;20216;-73
2022/05/01 09:48:45;;;;;;;5.77;2.47;;;;;;;;;;5032962;28;20265;-73
2022/05/01 09:51:17;;;;;;;4.15;2.70;;;;;;;;;;5029368;28;20633;-74
2022/05/01 09:53:46;;;;;;;2.72;2.30;;;;;;;;;;5032204;28;20215;-73
2022/05/01 09:56:14;;;;;;;2.50;2.20;;;;;;;;;;5031538;28;20203;-73
2022/05/01 09:58:43;;;;;;;2.53;2.10;;;;;;;;;;5025373;28;20227;-72
2022/05/01 10:01:13;;;;;;;2.88;2.58;;;;;;;;;;5022599;28;20208;-73
2022/05/01 10:03:45;;;;;;;3.28;2.30;;;;;;;;;;5027939;28;20207;-72
2022/05/01 10:06:14;;;;;;;2.75;2.10;;;;;;;;;;5030926;28;20205;-72
2022/05/01 10:08:44;;;;;;;3.15;2.40;;;;;;;;;;5033637;28;20309;-74
2022/05/01 10:11:14;;;;;;;3.63;2.45;;;;;;;;;;5031372;28;20265;-74
2022/05/01 10:13:43;;;;;;;2.83;2.10;;;;;;;;;;5031202;28;20207;-73
2022/05/01 10:16:15;;;;;;;2.97;2.10;;;;;;;;;;5031716;28;20206;-74
2022/05/01 10:18:50;;;;;;;2.83;2.13;;;;;;;;;;5031737;28;20891;-73
2022/05/01 10:21:39;;;;;;;2.30;2.10;;;;;;;;;;5031304;28;20212;-72
2022/05/01 10:24:08;;;;;;;2.70;2.17;;;;;;;;;;5031659;28;20200;-74
2022/05/01 10:26:39;;;;;;;3.25;2.17;;;;;;;;;;5032266;28;20204;-72
2022/05/01 10:29:31;;;;;;;3.13;1.98;;;;;;;;;;5033869;28;20204;-72
2022/05/01 10:32:24;;;;;;;3.35;2.13;;;;;;;;;;5015350;28;20585;-72
2022/05/01 10:35:22;;;;;;;3.67;2.45;;;;;;;;;;5029264;28;20239;-74
2022/05/01 10:38:16;;;;;;;3.97;2.50;;;;;;;;;;5031382;28;20223;-73
2022/05/01 10:40:46;;;;;;;3.38;2.22;;;;;;;;;;5018927;28;20234;-74
2022/05/01 10:43:25;;;;;;;3.80;2.20;;;;;;;;;;5026765;28;20295;-73
2022/05/01 10:45:54;;;;;;;3.22;2.67;;;;;;;;;;5027034;28;20294;-73
2022/05/01 10:48:32;;;;;;;2.60;2.35;;;;;;;;;;5032913;28;20220;-74
2022/05/01 10:51:19;;;;;;;2.92;2.50;;;;;;;;;;5032876;28;20196;-71
2022/05/01 10:54:02;;;;;;;3.10;2.35;;;;;;;;;;5033010;28;20212;-73
2022/05/01 10:56:35;;;;;;;3.80;2.25;;;;;;;;;;5029981;28;20196;-72
2022/05/01 10:59:38;;;;;;;4.55;2.30;;;;;;;;;;5033387;28;20369;-72
2022/05/01 11:02:36;;;;;;;4.00;2.50;;;;;;;;;;5032853;28;20203;-73
2022/05/01 11:05:05;;;;;;;3.72;2.55;;;;;;;;;;5009754;28;20204;-72
2022/05/01 11:07:35;;;;;;;3.58;2.67;;;;;;;;;;5032064;28;20259;-72
2022/05/01 11:10:06;;;;;;;4.85;2.50;;;;;;;;;;5031480;28;20218;-73
2022/05/01 11:12:36;;;;;;;3.05;2.70;;;;;;;;;;5029621;28;20199;-73
2022/05/01 11:15:06;;;;;;;3.03;2.72;;;;;;;;;;5026640;28;20199;-72
2022/05/01 11:17:56;;;;;;;3.15;2.85;;;;;;;;;;5032230;28;20224;-72
2022/05/01 11:20:43;;;;;;;4.18;2.72;;;;;;;;;;5030950;28;20235;-72
2022/05/01 11:23:27;;;;;;;3.25;2.95;;;;;;;;;;5033717;28;20204;-73
2022/05/01 11:26:06;;;;;;;4.00;2.90;;;;;;;;;;5021780;28;20204;-71
2022/05/01 11:28:46;;;;;;;3.80;2.90;;;;;;;;;;5025148;28;20239;-72
2022/05/01 11:31:33;;;;;;;6.93;3.05;;;;;;;;;;5032027;28;20560;-73
2022/05/01 11:34:17;;;;;;;6.10;3.08;;;;;;;;;;5030049;28;20218;-72
2022/05/01 11:36:53;;;;;;;3.30;2.70;;;;;;;;;;4996793;28;20259;-72
2022/05/01 11:39:22;;;;;;;3.95;2.58;;;;;;;;;;5030106;28;20243;-72
2022/05/01 11:42:00;;;;;;;5.40;2.63;;;;;;;;;;5031935;28;20227;-71
2022/05/01 11:44:30;;;;;;;3.10;2.50;;;;;;;;;;5029200;28;20200;-73
2022/05/01 11:46:59;;;;;;;2.50;2.25;;;;;;;;;;5030803;28;20223;-73
2022/05/01 11:49:29;;;;;;;2.90;2.60;;;;;;;;;;5029696;28;20619;-73
2022/05/01 11:51:59;;;;;;;3.10;2.80;;;;;;;;;;5025014;28;20262;-72
2022/05/01 11:54:29;;;;;;;4.00;2.80;;;;;;;;;;5027207;28;20204;-72
2022/05/01 12:02:33;;;;;;;3.30;2.53;;;;;;;;;;5030418;28;20204;-71
2022/05/01 12:05:04;;;;;;;3.83;2.60;;;;;;;;;;5026263;28;20208;-72
2022/05/01 12:07:33;;;;;;;3.63;2.63;;;;;;;;;;5031363;28;20306;-72
2022/05/01 12:10:01;;;;;;;3.55;2.90;;;;;;;;;;5030098;28;20196;-72
2022/05/01 12:12:30;;;;;;;3.30;2.50;;;;;;;;;;5029792;28;20207;-73
2022/05/01 12:15:04;;;;;;;2.90;2.50;;;;;;;;;;5030602;28;20212;-72
2022/05/01 12:17:32;;;;;;;4.03;2.75;;;;;;;;;;5032597;28;20223;-72
2022/05/01 12:20:01;;;;;;;2.42;2.22;;;;;;;;;;5031590;28;20226;-72
2022/05/01 12:22:37;;;;;;;3.17;2.78;;;;;;;;;;5018504;28;20591;-73
2022/05/01 12:25:07;;;;;;;4.00;2.92;;;;;;;;;;5031828;28;20306;-73
2022/05/01 12:27:40;;;;;;;4.90;3.13;;;;;;;;;;5031261;28;20239;-74
2022/05/01 12:30:11;;;;;;;4.70;3.08;;;;;;;;;;5032599;28;20938;-73
2022/05/01 12:32:53;;;;;;;3.30;3.00;;;;;;;;;;5032042;28;20212;-72
2022/05/01 12:35:21;;;;;;;3.85;3.45;;;;;;;;;;5025245;28;20212;-72
2022/05/01 12:37:50;;;;;;;4.13;2.90;;;;;;;;;;5029282;28;20225;-73
2022/05/01 12:43:50;;;;;;;3.67;3.08;;;;;;;;;;5029642;28;20699;-73
2022/05/01 12:46:23;;;;;;;3.45;2.63;;;;;;;;;;5028419;28;20208;-73
2022/05/01 12:48:51;;;;;;;3.33;3.03;;;;;;;;;;5032594;28;20220;-73
2022/05/01 12:51:20;;;;;;;3.67;2.63;;;;;;;;;;5032702;28;20207;-73
2022/05/01 12:53:48;;;;;;;3.45;2.65;;;;;;;;;;5031465;28;20234;-74
2022/05/01 12:56:17;;;;;;;4.22;2.80;;;;;;;;;;5032167;28;20204;-73
2022/05/01 12:58:46;;;;;;;3.58;2.60;;;;;;;;;;5030724;28;20762;-73
2022/05/01 13:01:26;;;;;;;5.18;3.28;;;;;;;;;;5032462;28;20232;-73
2022/05/01 13:03:56;;;;;;;3.10;2.80;;;;;;;;;;5031702;28;20215;-73
2022/05/01 13:06:25;;;;;;;4.25;3.00;;;;;;;;;;5031654;28;20214;-73
2022/05/01 13:09:07;;;;;;;3.15;2.78;;;;;;;;;;5022672;28;20719;-73
2022/05/01 13:11:36;;;;;;;3.88;3.20;;;;;;;;;;5027855;28;20257;-73
2022/05/01 13:14:05;;;;;;;3.65;3.17;;;;;;;;;;5035592;28;20573;-73
2022/05/01 13:16:47;;;;;;;5.50;3.33;;;;;;;;;;4686367;28;10000577;-74
2022/05/01 13:19:17;;;;;;;3.50;2.70;;;;;;;;;;5031292;28;20297;-74
2022/05/01 13:21:47;;;;;;;3.22;2.78;;;;;;;;;;5032993;28;20211;-72
2022/05/01 13:24:16;;;;;;;3.35;3.05;;;;;;;;;;5033633;28;20219;-74
2022/05/01 13:26:45;;;;;;;3.00;2.35;;;;;;;;;;5017729;28;20644;-74
2022/05/01 13:29:13;;;;;;;5.20;2.83;;;;;;;;;;5033798;28;20721;-73
2022/05/01 13:31:48;;;;;;;3.10;2.80;;;;;;;;;;5013982;28;20275;-72
2022/05/01 13:34:18;;;;;;;3.67;2.92;;;;;;;;;;5031033;28;20216;-73
2022/05/01 13:36:47;;;;;;;3.88;2.92;;;;;;;;;;5032928;28;20918;-73
2022/05/01 13:39:15;;;;;;;3.25;2.80;;;;;;;;;;5029116;28;20212;-74
2022/05/01 13:44:48;;;;;;;3.60;3.03;;;;;;;;;;5033388;28;20203;-73
2022/05/01 13:47:18;;;;;;;3.50;3.20;;;;;;;;;;5032975;28;20223;-72
2022/05/01 13:49:47;;;;;;;4.93;3.13;;;;;;;;;;5033255;28;20212;-74
2022/05/01 13:52:16;;;;;;;3.28;2.90;;;;;;;;;;5033478;28;20199;-74
2022/05/01 13:54:47;;;;;;;3.53;3.15;;;;;;;;;;5033524;28;20214;-73
2022/05/01 13:57:15;;;;;;;3.40;3.10;;;;;;;;;;5032394;28;20220;-73
2022/05/01 13:59:44;;;;;;;4.00;3.20;;;;;;;;;;5033036;28;20211;-72
2022/05/01 14:02:13;;;;;;;4.00;3.15;;;;;;;;;;5032717;28;20222;-73
2022/05/01 14:04:45;;;;;;;5.35;3.08;;;;;;;;;;5029833;28;20204;-73
2022/05/01 14:07:13;;;;;;;3.40;3.10;;;;;;;;;;5031850;28;20227;-74
2022/05/01 14:09:42;;;;;;;3.90;3.35;;;;;;;;;;5025110;28;20208;-73
2022/05/01 14:12:11;;;;;;;4.63;3.50;;;;;;;;;;5032278;28;20204;-74
2022/05/01 14:14:40;;;;;;;3.53;3.17;;;;;;;;;;5032641;28;20812;-74
2022/05/01 14:17:08;;;;;;;4.13;3.40;;;;;;;;;;5032145;28;20251;-73
2022/05/01 14:19:39;;;;;;;4.82;3.00;;;;;;;;;;5032249;28;20290;-73
2022/05/01 14:22:10;;;;;;;3.53;3.20;;;;;;;;;;5032207;28;20228;-73
2022/05/01 14:24:48;;;;;;;5.75;3.40;;;;;;;;;;5032275;28;20208;-73
2022/05/01 14:27:17;;;;;;;3.95;3.58;;;;;;;;;;5030086;28;20282;-73
2022/05/01 14:29:45;;;;;;;6.20;3.53;;;;;;;;;;5032353;28;20218;-74
2022/05/01 14:32:17;;;;;;;4.88;2.90;;;;;;;;;;5032207;28;20207;-74
2022/05/01 14:34:49;;;;;;;3.75;3.28;;;;;;;;;;5016503;28;20207;-73
2022/05/01 14:37:22;;;;;;;3.28;2.92;;;;;;;;;;5027854;28;20227;-74
2022/05/01 14:39:53;;;;;;;3.70;3.40;;;;;;;;;;5019171;28;20200;-74
2022/05/01 14:42:23;;;;;;;4.20;3.10;;;;;;;;;;5031893;28;20964;-73
2022/05/01 14:44:57;;;;;;;4.30;3.38;;;;;;;;;;5031876;28;20663;-73
2022/05/01 14:47:27;;;;;;;4.25;3.47;;;;;;;;;;5027002;28;20223;-73
2022/05/01 14:50:00;;;;;;;6.30;3.25;;;;;;;;;;5024711;28;20306;-74
2022/05/01 14:52:32;;;;;;;3.80;3.50;;;;;;;;;;5022024;28;20235;-72
2022/05/01 14:55:01;;;;;;;5.53;3.75;;;;;;;;;;5031412;28;20212;-74
2022/05/01 14:57:30;;;;;;;4.32;3.00;;;;;;;;;;5029442;28;20216;-73
2022/05/01 15:08:22;;;;;;;4.18;3.30;;;;;;;;;;5026210;28;20574;-74
2022/05/01 15:10:53;;;;;;;3.63;3.33;;;;;;;;;;5029561;28;20745;-74
2022/05/01 15:13:23;;;;;;;4.03;3.17;;;;;;;;;;5031970;28;20203;-74
2022/05/01 15:15:59;;;;;;;4.97;2.97;;;;;;;;;;5032576;28;20206;-74
2022/05/01 15:18:42;;;;;;;3.20;2.95;;;;;;;;;;5029217;28;20227;-74
2022/05/01 15:21:15;;;;;;;4.28;2.92;;;;;;;;;;5033213;28;20187;-74
2022/05/01 15:23:49;;;;;;;3.63;2.95;;;;;;;;;;5033142;28;20541;-74
2022/05/01 15:26:17;;;;;;;3.08;2.80;;;;;;;;;;5033856;28;20662;-75
2022/05/01 15:28:46;;;;;;;3.50;3.00;;;;;;;;;;5028538;28;20584;-75
2022/05/01 15:31:17;;;;;;;5.93;3.13;;;;;;;;;;5024764;28;20203;-76
2022/05/01 15:33:46;;;;;;;4.63;3.10;;;;;;;;;;5030358;28;20230;-75
2022/05/01 15:36:20;;;;;;;4.50;3.03;;;;;;;;;;5033202;28;20208;-75
2022/05/01 15:38:52;;;;;;;3.65;3.13;;;;;;;;;;5031485;28;20220;-75
2022/05/01 15:41:22;;;;;;;4.10;3.00;;;;;;;;;;5030653;28;20662;-73
2022/05/01 15:43:51;;;;;;;3.25;2.95;;;;;;;;;;5032828;28;20269;-73
2022/05/01 15:46:22;;;;;;;4.97;3.00;;;;;;;;;;5033120;28;20666;-74